sensor_id;sensor_type;location;lat;lon;timestamp;P1;durP1;ratioP1;P2;durP2;ratioP2
26536;SDS011;14204;51.262;5.488;2022-09-20T00:01:14;9.15;;;4.25;;
26536;SDS011;14204;51.262;5.488;2022-09-20T00:03:43;11.27;;;5.00;;
26536;SDS011;14204;51.262;5.488;2022-09-20T00:06:11;9.30;;;4.88;;
26536;SDS011;14204;51.262;5.488;2022-09-20T00:08:38;9.70;;;4.00;;
26536;SDS011;14204;51.262;5.488;2022-09-20T00:11:08;10.50;;;4.15;;
26536;SDS011;14204;51.262;5.488;2022-09-20T00:13:39;13.35;;;4.88;;
26536;SDS011;14204;51.262;5.488;2022-09-20T00:16:07;12.70;;;4.47;;
26536;SDS011;14204;51.262;5.488;2022-09-20T00:18:35;12.23;;;4.68;;
26536;SDS011;14204;51.262;5.488;2022-09-20T00:21:01;9.90;;;4.82;;
26536;SDS011;14204;51.262;5.488;2022-09-20T00:23:27;14.40;;;5.20;;
26536;SDS011;14204;51.262;5.488;2022-09-20T00:26:00;8.90;;;4.95;;
26536;SDS011;14204;51.262;5.488;2022-09-20T00:28:27;13.10;;;5.60;;
26536;SDS011;14204;51.262;5.488;2022-09-20T00:30:54;10.60;;;5.25;;
26536;SDS011;14204;51.262;5.488;2022-09-20T00:33:21;12.30;;;5.00;;
26536;SDS011;14204;51.262;5.488;2022-09-20T00:35:47;14.30;;;6.10;;
26536;SDS011;14204;51.262;5.488;2022-09-20T00:38:13;18.00;;;6.85;;
26536;SDS011;14204;51.262;5.488;2022-09-20T00:40:40;12.18;;;6.10;;
26536;SDS011;14204;51.262;5.488;2022-09-20T00:43:11;10.25;;;5.70;;
26536;SDS011;14204;51.262;5.488;2022-09-20T00:45:40;11.90;;;6.07;;
26536;SDS011;14204;51.262;5.488;2022-09-20T00:48:24;11.93;;;6.50;;
26536;SDS011;14204;51.262;5.488;2022-09-20T00:50:55;10.23;;;5.85;;
26536;SDS011;14204;51.262;5.488;2022-09-20T00:53:33;12.20;;;6.22;;
26536;SDS011;14204;51.262;5.488;2022-09-20T00:56:15;13.73;;;6.30;;
26536;SDS011;14204;51.262;5.488;2022-09-20T00:58:46;17.42;;;6.95;;
26536;SDS011;14204;51.262;5.488;2022-09-20T01:01:19;14.35;;;6.95;;
26536;SDS011;14204;51.262;5.488;2022-09-20T01:03:44;13.20;;;7.07;;
26536;SDS011;14204;51.262;5.488;2022-09-20T01:06:12;14.57;;;6.38;;
26536;SDS011;14204;51.262;5.488;2022-09-20T01:08:41;15.40;;;6.93;;
26536;SDS011;14204;51.262;5.488;2022-09-20T01:11:09;13.40;;;6.32;;
26536;SDS011;14204;51.262;5.488;2022-09-20T01:13:35;11.50;;;6.40;;
26536;SDS011;14204;51.262;5.488;2022-09-20T01:16:01;11.52;;;6.32;;
26536;SDS011;14204;51.262;5.488;2022-09-20T01:18:29;11.77;;;6.35;;
26536;SDS011;14204;51.262;5.488;2022-09-20T01:20:57;11.90;;;6.25;;
26536;SDS011;14204;51.262;5.488;2022-09-20T01:28:56;12.90;;;6.50;;
26536;SDS011;14204;51.262;5.488;2022-09-20T01:31:48;15.93;;;6.80;;
26536;SDS011;14204;51.262;5.488;2022-09-20T01:34:23;13.70;;;7.05;;
26536;SDS011;14204;51.262;5.488;2022-09-20T01:39:33;16.10;;;7.35;;
26536;SDS011;14204;51.262;5.488;2022-09-20T01:42:09;14.48;;;7.18;;
26536;SDS011;14204;51.262;5.488;2022-09-20T01:52:45;13.07;;;7.00;;
26536;SDS011;14204;51.262;5.488;2022-09-20T01:58:23;10.40;;;6.88;;
26536;SDS011;14204;51.262;5.488;2022-09-20T02:03:47;14.93;;;6.90;;
26536;SDS011;14204;51.262;5.488;2022-09-20T02:06:41;11.23;;;6.65;;
26536;SDS011;14204;51.262;5.488;2022-09-20T02:20:47;10.20;;;7.30;;
26536;SDS011;14204;51.262;5.488;2022-09-20T02:29:24;10.85;;;6.28;;
26536;SDS011;14204;51.262;5.488;2022-09-20T02:35:00;15.13;;;7.28;;
26536;SDS011;14204;51.262;5.488;2022-09-20T02:37:36;9.02;;;6.07;;
26536;SDS011;14204;51.262;5.488;2022-09-20T02:46:02;11.90;;;5.72;;
26536;SDS011;14204;51.262;5.488;2022-09-20T02:52:16;14.63;;;5.20;;
26536;SDS011;14204;51.262;5.488;2022-09-20T02:54:57;10.85;;;5.57;;
26536;SDS011;14204;51.262;5.488;2022-09-20T03:00:22;12.65;;;5.63;;
26536;SDS011;14204;51.262;5.488;2022-09-20T03:06:03;14.35;;;5.50;;
26536;SDS011;14204;51.262;5.488;2022-09-20T03:09:25;12.25;;;5.30;;
26536;SDS011;14204;51.262;5.488;2022-09-20T03:17:47;11.05;;;6.43;;
26536;SDS011;14204;51.262;5.488;2022-09-20T03:31:55;10.43;;;5.63;;
26536;SDS011;14204;51.262;5.488;2022-09-20T03:34:34;11.93;;;5.10;;
26536;SDS011;14204;51.262;5.488;2022-09-20T03:48:30;9.25;;;4.80;;
26536;SDS011;14204;51.262;5.488;2022-09-20T04:07:44;7.28;;;5.13;;
26536;SDS011;14204;51.262;5.488;2022-09-20T04:10:23;9.48;;;5.57;;
26536;SDS011;14204;51.262;5.488;2022-09-20T04:21:24;13.57;;;5.38;;
26536;SDS011;14204;51.262;5.488;2022-09-20T04:26:30;14.35;;;5.93;;
26536;SDS011;14204;51.262;5.488;2022-09-20T04:32:17;15.55;;;5.88;;
26536;SDS011;14204;51.262;5.488;2022-09-20T04:34:43;15.90;;;6.13;;
26536;SDS011;14204;51.262;5.488;2022-09-20T04:37:35;10.90;;;6.25;;
26536;SDS011;14204;51.262;5.488;2022-09-20T04:51:11;11.77;;;6.35;;
26536;SDS011;14204;51.262;5.488;2022-09-20T05:07:28;13.40;;;6.50;;
26536;SDS011;14204;51.262;5.488;2022-09-20T05:20:59;14.23;;;8.18;;
26536;SDS011;14204;51.262;5.488;2022-09-20T05:28:58;11.55;;;6.82;;
26536;SDS011;14204;51.262;5.488;2022-09-20T05:34:15;12.82;;;7.30;;
26536;SDS011;14204;51.262;5.488;2022-09-20T05:43:03;9.25;;;6.05;;
26536;SDS011;14204;51.262;5.488;2022-09-20T05:59:42;10.43;;;6.35;;
26536;SDS011;14204;51.262;5.488;2022-09-20T06:05:15;10.70;;;6.97;;
26536;SDS011;14204;51.262;5.488;2022-09-20T06:10:59;13.65;;;6.07;;
26536;SDS011;14204;51.262;5.488;2022-09-20T06:13:38;15.68;;;6.57;;
26536;SDS011;14204;51.262;5.488;2022-09-20T06:27:34;10.85;;;5.30;;
26536;SDS011;14204;51.262;5.488;2022-09-20T06:30:17;8.35;;;6.13;;
26536;SDS011;14204;51.262;5.488;2022-09-20T06:32:55;9.82;;;5.88;;
26536;SDS011;14204;51.262;5.488;2022-09-20T06:35:38;11.98;;;5.43;;
26536;SDS011;14204;51.262;5.488;2022-09-20T06:38:47;12.73;;;6.10;;
26536;SDS011;14204;51.262;5.488;2022-09-20T06:41:41;13.20;;;6.50;;
26536;SDS011;14204;51.262;5.488;2022-09-20T06:44:08;10.95;;;6.00;;
26536;SDS011;14204;51.262;5.488;2022-09-20T06:46:34;14.18;;;5.97;;
26536;SDS011;14204;51.262;5.488;2022-09-20T06:49:00;10.57;;;6.65;;
26536;SDS011;14204;51.262;5.488;2022-09-20T06:51:32;13.20;;;6.20;;
26536;SDS011;14204;51.262;5.488;2022-09-20T06:53:59;13.70;;;6.07;;
26536;SDS011;14204;51.262;5.488;2022-09-20T06:56:27;12.27;;;6.55;;
26536;SDS011;14204;51.262;5.488;2022-09-20T06:58:55;13.85;;;7.50;;
26536;SDS011;14204;51.262;5.488;2022-09-20T07:01:21;13.63;;;6.90;;
26536;SDS011;14204;51.262;5.488;2022-09-20T07:03:47;14.73;;;6.65;;
26536;SDS011;14204;51.262;5.488;2022-09-20T07:06:13;10.52;;;6.38;;
26536;SDS011;14204;51.262;5.488;2022-09-20T07:08:44;13.07;;;6.75;;
26536;SDS011;14204;51.262;5.488;2022-09-20T07:11:11;10.93;;;6.35;;
26536;SDS011;14204;51.262;5.488;2022-09-20T07:13:40;11.73;;;6.82;;
26536;SDS011;14204;51.262;5.488;2022-09-20T07:16:13;10.18;;;6.53;;
26536;SDS011;14204;51.262;5.488;2022-09-20T07:18:39;14.20;;;6.60;;
26536;SDS011;14204;51.262;5.488;2022-09-20T07:21:06;17.23;;;6.40;;
26536;SDS011;14204;51.262;5.488;2022-09-20T07:23:39;9.55;;;6.55;;
26536;SDS011;14204;51.262;5.488;2022-09-20T07:26:05;12.60;;;5.78;;
26536;SDS011;14204;51.262;5.488;2022-09-20T07:28:40;8.68;;;6.18;;
26536;SDS011;14204;51.262;5.488;2022-09-20T07:31:05;10.13;;;6.10;;
26536;SDS011;14204;51.262;5.488;2022-09-20T07:33:31;9.73;;;5.45;;
26536;SDS011;14204;51.262;5.488;2022-09-20T07:35:56;8.15;;;5.78;;
26536;SDS011;14204;51.262;5.488;2022-09-20T07:38:22;9.85;;;5.78;;
26536;SDS011;14204;51.262;5.488;2022-09-20T07:40:55;9.65;;;5.03;;
26536;SDS011;14204;51.262;5.488;2022-09-20T07:43:25;9.23;;;5.63;;
26536;SDS011;14204;51.262;5.488;2022-09-20T07:45:52;8.98;;;5.35;;
26536;SDS011;14204;51.262;5.488;2022-09-20T07:48:23;9.68;;;4.90;;
26536;SDS011;14204;51.262;5.488;2022-09-20T07:50:58;8.05;;;4.70;;
26536;SDS011;14204;51.262;5.488;2022-09-20T07:53:30;6.10;;;4.45;;
26536;SDS011;14204;51.262;5.488;2022-09-20T07:58:27;12.70;;;3.70;;
26536;SDS011;14204;51.262;5.488;2022-09-20T08:00:54;8.27;;;3.95;;
26536;SDS011;14204;51.262;5.488;2022-09-20T08:03:21;8.73;;;3.83;;
26536;SDS011;14204;51.262;5.488;2022-09-20T08:05:47;7.40;;;3.70;;
26536;SDS011;14204;51.262;5.488;2022-09-20T08:08:14;7.35;;;3.15;;
26536;SDS011;14204;51.262;5.488;2022-09-20T08:10:42;6.93;;;3.33;;
26536;SDS011;14204;51.262;5.488;2022-09-20T08:13:12;6.32;;;3.03;;
26536;SDS011;14204;51.262;5.488;2022-09-20T08:15:38;10.05;;;3.47;;
26536;SDS011;14204;51.262;5.488;2022-09-20T08:18:04;7.35;;;2.72;;
26536;SDS011;14204;51.262;5.488;2022-09-20T08:20:33;10.02;;;2.85;;
26536;SDS011;14204;51.262;5.488;2022-09-20T08:23:02;6.00;;;2.50;;
26536;SDS011;14204;51.262;5.488;2022-09-20T08:25:28;6.75;;;2.83;;
26536;SDS011;14204;51.262;5.488;2022-09-20T08:27:54;8.05;;;3.08;;
26536;SDS011;14204;51.262;5.488;2022-09-20T08:30:20;8.20;;;2.78;;
26536;SDS011;14204;51.262;5.488;2022-09-20T08:32:45;6.88;;;2.25;;
26536;SDS011;14204;51.262;5.488;2022-09-20T08:35:11;4.70;;;2.00;;
26536;SDS011;14204;51.262;5.488;2022-09-20T08:37:39;7.18;;;1.85;;
26536;SDS011;14204;51.262;5.488;2022-09-20T08:40:05;6.82;;;1.60;;
26536;SDS011;14204;51.262;5.488;2022-09-20T08:42:34;4.40;;;1.20;;
26536;SDS011;14204;51.262;5.488;2022-09-20T08:45:20;5.55;;;1.30;;
26536;SDS011;14204;51.262;5.488;2022-09-20T08:47:52;7.88;;;1.55;;
26536;SDS011;14204;51.262;5.488;2022-09-20T08:50:22;5.65;;;1.40;;
26536;SDS011;14204;51.262;5.488;2022-09-20T08:52:48;5.22;;;1.27;;
26536;SDS011;14204;51.262;5.488;2022-09-20T08:55:19;6.47;;;1.40;;
26536;SDS011;14204;51.262;5.488;2022-09-20T08:57:48;7.68;;;1.48;;
26536;SDS011;14204;51.262;5.488;2022-09-20T09:00:20;5.75;;;1.50;;
26536;SDS011;14204;51.262;5.488;2022-09-20T09:02:53;6.30;;;1.17;;
26536;SDS011;14204;51.262;5.488;2022-09-20T09:05:27;6.97;;;1.27;;
26536;SDS011;14204;51.262;5.488;2022-09-20T09:07:57;3.88;;;1.10;;
26536;SDS011;14204;51.262;5.488;2022-09-20T09:10:34;6.60;;;0.90;;
26536;SDS011;14204;51.262;5.488;2022-09-20T09:13:02;4.60;;;1.25;;
26536;SDS011;14204;51.262;5.488;2022-09-20T09:15:31;3.70;;;1.15;;
26536;SDS011;14204;51.262;5.488;2022-09-20T09:17:59;6.00;;;1.15;;
26536;SDS011;14204;51.262;5.488;2022-09-20T09:20:25;8.00;;;1.33;;
26536;SDS011;14204;51.262;5.488;2022-09-20T09:23:01;5.05;;;1.08;;
26536;SDS011;14204;51.262;5.488;2022-09-20T09:25:39;3.73;;;1.17;;
26536;SDS011;14204;51.262;5.488;2022-09-20T09:33:20;8.75;;;1.25;;
26536;SDS011;14204;51.262;5.488;2022-09-20T09:35:52;6.97;;;1.52;;
26536;SDS011;14204;51.262;5.488;2022-09-20T09:38:25;2.65;;;0.80;;
26536;SDS011;14204;51.262;5.488;2022-09-20T09:40:53;5.72;;;1.08;;
26536;SDS011;14204;51.262;5.488;2022-09-20T09:43:25;4.50;;;1.02;;
26536;SDS011;14204;51.262;5.488;2022-09-20T09:45:53;7.20;;;0.93;;
26536;SDS011;14204;51.262;5.488;2022-09-20T09:48:28;5.57;;;0.85;;
26536;SDS011;14204;51.262;5.488;2022-09-20T09:51:10;5.07;;;1.02;;
26536;SDS011;14204;51.262;5.488;2022-09-20T09:53:39;3.42;;;1.05;;
26536;SDS011;14204;51.262;5.488;2022-09-20T10:06:56;4.97;;;0.70;;
26536;SDS011;14204;51.262;5.488;2022-09-20T10:17:59;3.58;;;0.98;;
26536;SDS011;14204;51.262;5.488;2022-09-20T10:38:00;9.95;;;1.42;;
26536;SDS011;14204;51.262;5.488;2022-09-20T10:45:54;15.43;;;1.20;;
26536;SDS011;14204;51.262;5.488;2022-09-20T10:48:31;4.28;;;1.38;;
26536;SDS011;14204;51.262;5.488;2022-09-20T10:54:10;7.40;;;1.30;;
26536;SDS011;14204;51.262;5.488;2022-09-20T10:58:03;13.30;;;1.70;;
26536;SDS011;14204;51.262;5.488;2022-09-20T11:08:19;6.90;;;1.13;;
26536;SDS011;14204;51.262;5.488;2022-09-20T11:10:57;3.75;;;1.00;;
26536;SDS011;14204;51.262;5.488;2022-09-20T11:19:27;5.80;;;1.35;;
26536;SDS011;14204;51.262;5.488;2022-09-20T11:22:14;6.63;;;0.90;;
26536;SDS011;14204;51.262;5.488;2022-09-20T11:25:16;8.05;;;1.58;;
26536;SDS011;14204;51.262;5.488;2022-09-20T11:28:00;9.73;;;1.33;;
26536;SDS011;14204;51.262;5.488;2022-09-20T11:30:33;9.55;;;1.23;;
26536;SDS011;14204;51.262;5.488;2022-09-20T11:33:07;5.38;;;1.23;;
26536;SDS011;14204;51.262;5.488;2022-09-20T11:35:45;8.20;;;1.10;;
26536;SDS011;14204;51.262;5.488;2022-09-20T11:38:25;4.35;;;0.90;;
26536;SDS011;14204;51.262;5.488;2022-09-20T11:43:49;12.20;;;1.40;;
26536;SDS011;14204;51.262;5.488;2022-09-20T11:46:19;5.72;;;1.23;;
26536;SDS011;14204;51.262;5.488;2022-09-20T11:48:53;5.63;;;1.30;;
26536;SDS011;14204;51.262;5.488;2022-09-20T11:57:25;5.15;;;1.15;;
26536;SDS011;14204;51.262;5.488;2022-09-20T11:59:53;8.52;;;1.00;;
26536;SDS011;14204;51.262;5.488;2022-09-20T12:02:22;6.53;;;0.90;;
26536;SDS011;14204;51.262;5.488;2022-09-20T12:05:06;3.95;;;0.93;;
26536;SDS011;14204;51.262;5.488;2022-09-20T12:07:53;5.82;;;0.93;;
26536;SDS011;14204;51.262;5.488;2022-09-20T12:10:25;6.25;;;1.27;;
26536;SDS011;14204;51.262;5.488;2022-09-20T12:15:36;6.68;;;1.35;;
26536;SDS011;14204;51.262;5.488;2022-09-20T12:26:08;3.53;;;1.08;;
26536;SDS011;14204;51.262;5.488;2022-09-20T12:33:57;9.35;;;1.30;;
26536;SDS011;14204;51.262;5.488;2022-09-20T12:36:36;8.75;;;1.10;;
26536;SDS011;14204;51.262;5.488;2022-09-20T12:39:14;16.73;;;1.83;;
26536;SDS011;14204;51.262;5.488;2022-09-20T12:41:52;7.95;;;1.40;;
26536;SDS011;14204;51.262;5.488;2022-09-20T12:44:37;7.82;;;1.35;;
26536;SDS011;14204;51.262;5.488;2022-09-20T13:00:42;8.40;;;1.58;;
26536;SDS011;14204;51.262;5.488;2022-09-20T13:05:43;6.80;;;1.60;;
26536;SDS011;14204;51.262;5.488;2022-09-20T13:10:37;5.60;;;1.00;;
26536;SDS011;14204;51.262;5.488;2022-09-20T13:13:34;7.30;;;1.40;;
26536;SDS011;14204;51.262;5.488;2022-09-20T13:16:11;4.88;;;1.23;;
26536;SDS011;14204;51.262;5.488;2022-09-20T13:21:40;4.28;;;1.00;;
26536;SDS011;14204;51.262;5.488;2022-09-20T13:24:20;5.82;;;1.05;;
26536;SDS011;14204;51.262;5.488;2022-09-20T13:26:49;5.00;;;0.90;;
26536;SDS011;14204;51.262;5.488;2022-09-20T13:29:29;7.78;;;0.90;;
26536;SDS011;14204;51.262;5.488;2022-09-20T13:32:21;6.22;;;0.93;;
26536;SDS011;14204;51.262;5.488;2022-09-20T13:37:33;5.10;;;1.00;;
26536;SDS011;14204;51.262;5.488;2022-09-20T13:40:19;6.65;;;1.00;;
26536;SDS011;14204;51.262;5.488;2022-09-20T13:42:45;5.40;;;0.88;;
26536;SDS011;14204;51.262;5.488;2022-09-20T13:45:13;4.45;;;1.05;;
26536;SDS011;14204;51.262;5.488;2022-09-20T13:47:40;5.05;;;0.88;;
26536;SDS011;14204;51.262;5.488;2022-09-20T13:53:15;9.65;;;1.20;;
26536;SDS011;14204;51.262;5.488;2022-09-20T13:55:42;6.55;;;1.23;;
26536;SDS011;14204;51.262;5.488;2022-09-20T14:00:45;13.48;;;4.32;;
26536;SDS011;14204;51.262;5.488;2022-09-20T14:03:15;16.08;;;5.50;;
26536;SDS011;14204;51.262;5.488;2022-09-20T14:05:45;9.23;;;3.33;;
26536;SDS011;14204;51.262;5.488;2022-09-20T14:08:28;8.00;;;2.00;;
26536;SDS011;14204;51.262;5.488;2022-09-20T14:11:06;6.53;;;1.30;;
26536;SDS011;14204;51.262;5.488;2022-09-20T14:13:53;3.63;;;1.27;;
26536;SDS011;14204;51.262;5.488;2022-09-20T14:16:30;4.90;;;0.93;;
26536;SDS011;14204;51.262;5.488;2022-09-20T14:19:11;3.70;;;0.90;;
26536;SDS011;14204;51.262;5.488;2022-09-20T14:21:40;5.35;;;1.02;;
26536;SDS011;14204;51.262;5.488;2022-09-20T14:26:42;3.47;;;0.90;;
26536;SDS011;14204;51.262;5.488;2022-09-20T14:29:28;3.58;;;0.77;;
26536;SDS011;14204;51.262;5.488;2022-09-20T14:34:38;6.22;;;1.33;;
26536;SDS011;14204;51.262;5.488;2022-09-20T14:37:06;4.07;;;0.90;;
26536;SDS011;14204;51.262;5.488;2022-09-20T14:39:44;7.05;;;1.40;;
26536;SDS011;14204;51.262;5.488;2022-09-20T14:44:55;5.72;;;1.17;;
26536;SDS011;14204;51.262;5.488;2022-09-20T14:47:28;6.65;;;1.13;;
26536;SDS011;14204;51.262;5.488;2022-09-20T14:50:03;6.35;;;1.13;;
26536;SDS011;14204;51.262;5.488;2022-09-20T14:52:57;8.60;;;1.38;;
26536;SDS011;14204;51.262;5.488;2022-09-20T14:55:28;6.47;;;1.13;;
26536;SDS011;14204;51.262;5.488;2022-09-20T14:57:56;6.22;;;0.80;;
26536;SDS011;14204;51.262;5.488;2022-09-20T15:00:24;7.53;;;1.55;;
26536;SDS011;14204;51.262;5.488;2022-09-20T15:02:51;4.85;;;1.27;;
26536;SDS011;14204;51.262;5.488;2022-09-20T15:05:19;2.40;;;0.70;;
26536;SDS011;14204;51.262;5.488;2022-09-20T15:07:51;6.03;;;1.02;;
26536;SDS011;14204;51.262;5.488;2022-09-20T15:10:18;6.20;;;1.13;;
26536;SDS011;14204;51.262;5.488;2022-09-20T15:12:44;5.25;;;0.95;;
26536;SDS011;14204;51.262;5.488;2022-09-20T15:15:13;4.88;;;1.02;;
26536;SDS011;14204;51.262;5.488;2022-09-20T15:17:40;3.75;;;1.00;;
26536;SDS011;14204;51.262;5.488;2022-09-20T15:20:14;4.13;;;1.08;;
26536;SDS011;14204;51.262;5.488;2022-09-20T15:22:42;7.60;;;1.00;;
26536;SDS011;14204;51.262;5.488;2022-09-20T15:25:11;1.67;;;0.75;;
26536;SDS011;14204;51.262;5.488;2022-09-20T15:27:38;1.65;;;0.63;;
26536;SDS011;14204;51.262;5.488;2022-09-20T15:30:07;6.10;;;1.08;;
26536;SDS011;14204;51.262;5.488;2022-09-20T15:32:34;4.75;;;0.88;;
26536;SDS011;14204;51.262;5.488;2022-09-20T15:34:59;5.32;;;1.10;;
26536;SDS011;14204;51.262;5.488;2022-09-20T15:37:25;5.70;;;1.30;;
26536;SDS011;14204;51.262;5.488;2022-09-20T15:39:51;5.13;;;1.00;;
26536;SDS011;14204;51.262;5.488;2022-09-20T15:42:16;3.65;;;1.10;;
26536;SDS011;14204;51.262;5.488;2022-09-20T15:44:45;2.67;;;0.95;;
26536;SDS011;14204;51.262;5.488;2022-09-20T15:47:18;5.57;;;1.00;;
26536;SDS011;14204;51.262;5.488;2022-09-20T15:49:48;7.95;;;1.40;;
26536;SDS011;14204;51.262;5.488;2022-09-20T15:52:14;2.22;;;0.93;;
26536;SDS011;14204;51.262;5.488;2022-09-20T15:54:40;3.65;;;1.02;;
26536;SDS011;14204;51.262;5.488;2022-09-20T15:57:06;2.97;;;1.10;;
26536;SDS011;14204;51.262;5.488;2022-09-20T15:59:32;4.40;;;1.63;;
26536;SDS011;14204;51.262;5.488;2022-09-20T16:01:58;4.45;;;1.00;;
26536;SDS011;14204;51.262;5.488;2022-09-20T16:04:24;3.17;;;0.95;;
26536;SDS011;14204;51.262;5.488;2022-09-20T16:06:54;3.88;;;1.23;;
26536;SDS011;14204;51.262;5.488;2022-09-20T16:09:19;3.22;;;0.90;;
26536;SDS011;14204;51.262;5.488;2022-09-20T16:11:45;5.80;;;1.30;;
26536;SDS011;14204;51.262;5.488;2022-09-20T16:14:12;6.50;;;1.67;;
26536;SDS011;14204;51.262;5.488;2022-09-20T16:16:37;6.25;;;1.65;;
26536;SDS011;14204;51.262;5.488;2022-09-20T16:19:03;4.68;;;1.27;;
26536;SDS011;14204;51.262;5.488;2022-09-20T16:21:41;3.85;;;1.50;;
26536;SDS011;14204;51.262;5.488;2022-09-20T16:24:26;4.18;;;1.00;;
26536;SDS011;14204;51.262;5.488;2022-09-20T16:26:53;9.25;;;1.48;;
26536;SDS011;14204;51.262;5.488;2022-09-20T16:29:19;5.05;;;1.10;;
26536;SDS011;14204;51.262;5.488;2022-09-20T16:31:49;4.82;;;1.23;;
26536;SDS011;14204;51.262;5.488;2022-09-20T16:34:16;4.72;;;1.30;;
26536;SDS011;14204;51.262;5.488;2022-09-20T16:36:47;4.75;;;1.30;;
26536;SDS011;14204;51.262;5.488;2022-09-20T16:39:15;6.07;;;1.25;;
26536;SDS011;14204;51.262;5.488;2022-09-20T16:41:42;7.40;;;1.60;;
26536;SDS011;14204;51.262;5.488;2022-09-20T16:44:09;5.55;;;1.38;;
26536;SDS011;14204;51.262;5.488;2022-09-20T16:46:35;5.18;;;1.85;;
26536;SDS011;14204;51.262;5.488;2022-09-20T16:49:05;7.20;;;1.20;;
26536;SDS011;14204;51.262;5.488;2022-09-20T16:51:37;5.33;;;1.53;;
26536;SDS011;14204;51.262;5.488;2022-09-20T16:54:08;7.22;;;1.65;;
26536;SDS011;14204;51.262;5.488;2022-09-20T16:56:37;2.97;;;1.27;;
26536;SDS011;14204;51.262;5.488;2022-09-20T16:59:10;3.90;;;1.33;;
26536;SDS011;14204;51.262;5.488;2022-09-20T17:01:38;6.43;;;2.05;;
26536;SDS011;14204;51.262;5.488;2022-09-20T17:04:04;7.57;;;1.73;;
26536;SDS011;14204;51.262;5.488;2022-09-20T17:06:31;6.40;;;1.70;;
26536;SDS011;14204;51.262;5.488;2022-09-20T17:08:58;4.88;;;1.90;;
26536;SDS011;14204;51.262;5.488;2022-09-20T17:11:26;9.98;;;2.80;;
26536;SDS011;14204;51.262;5.488;2022-09-20T17:13:53;8.82;;;3.30;;
26536;SDS011;14204;51.262;5.488;2022-09-20T17:16:21;7.20;;;3.65;;
26536;SDS011;14204;51.262;5.488;2022-09-20T17:19:01;14.13;;;4.20;;
26536;SDS011;14204;51.262;5.488;2022-09-20T17:21:31;7.53;;;3.47;;
26536;SDS011;14204;51.262;5.488;2022-09-20T17:23:57;8.98;;;3.50;;
26536;SDS011;14204;51.262;5.488;2022-09-20T17:26:25;13.23;;;3.65;;
26536;SDS011;14204;51.262;5.488;2022-09-20T17:28:53;10.25;;;3.38;;
26536;SDS011;14204;51.262;5.488;2022-09-20T17:31:20;6.85;;;3.20;;
26536;SDS011;14204;51.262;5.488;2022-09-20T17:33:49;8.40;;;3.00;;
26536;SDS011;14204;51.262;5.488;2022-09-20T17:36:16;11.05;;;3.25;;
26536;SDS011;14204;51.262;5.488;2022-09-20T17:38:45;7.05;;;3.60;;
26536;SDS011;14204;51.262;5.488;2022-09-20T17:41:15;8.60;;;3.95;;
26536;SDS011;14204;51.262;5.488;2022-09-20T17:43:42;8.32;;;3.67;;
26536;SDS011;14204;51.262;5.488;2022-09-20T17:46:12;12.82;;;4.18;;
26536;SDS011;14204;51.262;5.488;2022-09-20T17:48:38;15.23;;;3.60;;
26536;SDS011;14204;51.262;5.488;2022-09-20T17:51:06;15.00;;;3.72;;
26536;SDS011;14204;51.262;5.488;2022-09-20T17:53:33;8.68;;;3.78;;
26536;SDS011;14204;51.262;5.488;2022-09-20T17:55:59;9.45;;;3.17;;
26536;SDS011;14204;51.262;5.488;2022-09-20T17:58:26;8.38;;;3.47;;
26536;SDS011;14204;51.262;5.488;2022-09-20T18:00:52;10.18;;;3.70;;
26536;SDS011;14204;51.262;5.488;2022-09-20T18:03:23;9.88;;;3.30;;
26536;SDS011;14204;51.262;5.488;2022-09-20T18:05:49;10.57;;;3.72;;
26536;SDS011;14204;51.262;5.488;2022-09-20T18:08:16;8.65;;;3.60;;
26536;SDS011;14204;51.262;5.488;2022-09-20T18:10:52;10.07;;;3.85;;
26536;SDS011;14204;51.262;5.488;2022-09-20T18:13:21;10.45;;;4.30;;
26536;SDS011;14204;51.262;5.488;2022-09-20T18:15:48;8.38;;;3.10;;
26536;SDS011;14204;51.262;5.488;2022-09-20T18:18:14;11.95;;;3.78;;
26536;SDS011;14204;51.262;5.488;2022-09-20T18:20:39;7.60;;;3.92;;
26536;SDS011;14204;51.262;5.488;2022-09-20T18:23:05;9.75;;;4.03;;
26536;SDS011;14204;51.262;5.488;2022-09-20T18:25:32;11.07;;;4.63;;
26536;SDS011;14204;51.262;5.488;2022-09-20T18:28:18;12.25;;;4.22;;
26536;SDS011;14204;51.262;5.488;2022-09-20T18:30:44;14.68;;;5.30;;
26536;SDS011;14204;51.262;5.488;2022-09-20T18:33:14;10.75;;;5.07;;
26536;SDS011;14204;51.262;5.488;2022-09-20T18:35:41;11.70;;;5.47;;
26536;SDS011;14204;51.262;5.488;2022-09-20T18:38:07;11.90;;;5.07;;
26536;SDS011;14204;51.262;5.488;2022-09-20T18:40:33;10.23;;;4.32;;
26536;SDS011;14204;51.262;5.488;2022-09-20T18:43:02;7.93;;;5.18;;
26536;SDS011;14204;51.262;5.488;2022-09-20T18:45:29;11.18;;;4.57;;
26536;SDS011;14204;51.262;5.488;2022-09-20T18:47:54;10.48;;;5.25;;
26536;SDS011;14204;51.262;5.488;2022-09-20T18:50:23;8.40;;;5.15;;
26536;SDS011;14204;51.262;5.488;2022-09-20T18:52:51;11.23;;;5.22;;
26536;SDS011;14204;51.262;5.488;2022-09-20T18:55:17;15.13;;;5.22;;
26536;SDS011;14204;51.262;5.488;2022-09-20T18:57:43;12.15;;;5.53;;
26536;SDS011;14204;51.262;5.488;2022-09-20T19:00:12;10.57;;;5.03;;
26536;SDS011;14204;51.262;5.488;2022-09-20T19:05:36;8.98;;;4.72;;
26536;SDS011;14204;51.262;5.488;2022-09-20T19:11:03;9.55;;;5.20;;
26536;SDS011;14204;51.262;5.488;2022-09-20T19:13:41;8.48;;;5.07;;
26536;SDS011;14204;51.262;5.488;2022-09-20T19:16:15;7.70;;;6.10;;
26536;SDS011;14204;51.262;5.488;2022-09-20T19:21:35;24.00;;;21.42;;
26536;SDS011;14204;51.262;5.488;2022-09-20T19:27:23;21.45;;;17.80;;
26536;SDS011;14204;51.262;5.488;2022-09-20T19:29:50;19.27;;;17.08;;
26536;SDS011;14204;51.262;5.488;2022-09-20T19:32:16;18.25;;;14.80;;
26536;SDS011;14204;51.262;5.488;2022-09-20T19:34:45;16.52;;;12.70;;
26536;SDS011;14204;51.262;5.488;2022-09-20T19:43:09;14.70;;;9.88;;
26536;SDS011;14204;51.262;5.488;2022-09-20T19:46:14;19.05;;;11.90;;
26536;SDS011;14204;51.262;5.488;2022-09-20T19:51:26;21.90;;;11.95;;
26536;SDS011;14204;51.262;5.488;2022-09-20T19:53:56;18.75;;;12.15;;
26536;SDS011;14204;51.262;5.488;2022-09-20T19:56:25;19.17;;;14.18;;
26536;SDS011;14204;51.262;5.488;2022-09-20T19:58:52;27.80;;;20.30;;
26536;SDS011;14204;51.262;5.488;2022-09-20T20:01:23;40.85;;;28.70;;
26536;SDS011;14204;51.262;5.488;2022-09-20T20:03:52;29.67;;;19.83;;
26536;SDS011;14204;51.262;5.488;2022-09-20T20:06:31;21.40;;;14.80;;
26536;SDS011;14204;51.262;5.488;2022-09-20T20:17:31;12.57;;;10.10;;
26536;SDS011;14204;51.262;5.488;2022-09-20T20:28:15;19.95;;;15.07;;
26536;SDS011;14204;51.262;5.488;2022-09-20T20:30:41;24.02;;;14.75;;
26536;SDS011;14204;51.262;5.488;2022-09-20T20:33:11;18.67;;;12.95;;
26536;SDS011;14204;51.262;5.488;2022-09-20T20:35:39;14.00;;;10.90;;
26536;SDS011;14204;51.262;5.488;2022-09-20T20:38:05;14.55;;;11.45;;
26536;SDS011;14204;51.262;5.488;2022-09-20T20:40:34;20.50;;;12.30;;
26536;SDS011;14204;51.262;5.488;2022-09-20T20:43:00;22.27;;;12.55;;
26536;SDS011;14204;51.262;5.488;2022-09-20T20:45:27;16.02;;;11.30;;
26536;SDS011;14204;51.262;5.488;2022-09-20T20:47:57;16.55;;;10.27;;
26536;SDS011;14204;51.262;5.488;2022-09-20T20:50:26;12.98;;;10.27;;
26536;SDS011;14204;51.262;5.488;2022-09-20T20:52:53;16.02;;;9.20;;
26536;SDS011;14204;51.262;5.488;2022-09-20T20:55:20;10.95;;;8.52;;
26536;SDS011;14204;51.262;5.488;2022-09-20T20:57:50;13.18;;;9.07;;
26536;SDS011;14204;51.262;5.488;2022-09-20T21:00:21;14.13;;;9.73;;
26536;SDS011;14204;51.262;5.488;2022-09-20T21:02:46;14.52;;;8.82;;
26536;SDS011;14204;51.262;5.488;2022-09-20T21:05:12;14.07;;;9.88;;
26536;SDS011;14204;51.262;5.488;2022-09-20T21:07:39;13.98;;;11.18;;
26536;SDS011;14204;51.262;5.488;2022-09-20T21:10:05;14.15;;;10.90;;
26536;SDS011;14204;51.262;5.488;2022-09-20T21:12:32;18.10;;;11.07;;